Time;durP1;ratioP1;P1;durP2;ratioP2;P2;SDS_P1;SDS_P2;PMS_P1;PMS_P2;Temp;Humidity;BMP_temperature;BMP_pressure;BME280_temperature;BME280_humidity;BME280_pressure;Samples;Min_cycle;Max_cycle;Signal;HPM_P1;HPM_P2
2022/10/23 00:01:13;;;;;;;28.13;13.75;;;10.40;99.90;;;;;;6147275;23;20026;-68
2022/10/23 00:03:39;;;;;;;33.80;14.00;;;10.40;99.90;;;;;;6147853;23;20041;-68
2022/10/23 00:06:05;;;;;;;36.40;14.77;;;10.50;99.90;;;;;;6121646;23;20053;-68
2022/10/23 00:08:30;;;;;;;35.88;13.75;;;10.50;99.90;;;;;;6147656;23;20025;-67
2022/10/23 00:10:56;;;;;;;38.78;16.40;;;10.50;99.90;;;;;;6147522;23;20358;-69
2022/10/23 00:13:22;;;;;;;33.53;15.90;;;10.50;99.90;;;;;;6147482;23;20113;-67
2022/10/23 00:15:47;;;;;;;29.70;15.13;;;10.50;99.90;;;;;;6145987;23;20076;-68
2022/10/23 00:18:13;;;;;;;33.47;15.43;;;10.50;99.90;;;;;;6148068;23;20032;-68
2022/10/23 00:20:38;;;;;;;35.25;15.85;;;10.50;99.90;;;;;;6145594;23;20025;-68
2022/10/23 00:23:09;;;;;;;28.42;14.43;;;10.50;99.90;;;;;;6121787;23;20120;-69
2022/10/23 00:25:34;;;;;;;32.83;14.18;;;10.50;99.90;;;;;;6145214;23;20025;-68
2022/10/23 00:28:00;;;;;;;24.55;13.50;;;10.50;99.90;;;;;;6120934;23;20109;-69
2022/10/23 00:30:25;;;;;;;32.63;14.70;;;10.50;99.90;;;;;;6118947;23;20285;-69
2022/10/23 00:32:51;;;;;;;35.47;14.35;;;10.50;99.90;;;;;;6120897;23;20013;-68
2022/10/23 00:35:17;;;;;;;31.63;13.27;;;10.40;99.90;;;;;;6145418;23;20033;-68
2022/10/23 00:37:43;;;;;;;34.28;14.95;;;10.40;99.90;;;;;;6122393;23;20328;-68
2022/10/23 00:40:09;;;;;;;31.55;14.18;;;10.40;99.90;;;;;;6145563;23;20021;-69
2022/10/23 00:42:34;;;;;;;26.75;13.45;;;10.30;99.90;;;;;;6146869;23;20026;-67
2022/10/23 00:45:09;;;;;;;23.02;14.43;;;10.40;99.90;;;;;;6144656;23;20344;-68
2022/10/23 00:47:35;;;;;;;30.00;14.20;;;10.40;99.90;;;;;;6146610;23;20097;-68
2022/10/23 00:50:01;;;;;;;26.17;14.15;;;10.30;99.90;;;;;;6145569;23;20129;-68
2022/10/23 00:52:27;;;;;;;33.45;13.75;;;10.30;99.90;;;;;;6120418;23;20089;-68
2022/10/23 00:54:53;;;;;;;28.90;13.43;;;10.30;99.90;;;;;;6144907;23;20457;-68
2022/10/23 00:57:18;;;;;;;36.03;15.73;;;10.20;99.90;;;;;;6121682;23;20025;-68
2022/10/23 00:59:44;;;;;;;38.28;15.57;;;10.30;99.90;;;;;;6146190;23;20014;-68
2022/10/23 01:02:10;;;;;;;35.22;14.18;;;10.20;99.90;;;;;;6145205;23;20025;-68
2022/10/23 01:04:36;;;;;;;34.58;15.43;;;10.20;99.90;;;;;;6121546;23;20177;-68
2022/10/23 01:07:21;;;;;;;23.65;13.45;;;10.20;99.90;;;;;;6146368;23;20026;-69
2022/10/23 01:09:58;;;;;;;35.10;15.05;;;10.10;99.90;;;;;;6145618;23;20025;-68
2022/10/23 01:12:33;;;;;;;32.45;13.75;;;10.10;99.90;;;;;;6146852;23;20021;-68
2022/10/23 01:15:07;;;;;;;34.45;14.05;;;10.10;99.90;;;;;;6119975;23;20017;-68
2022/10/23 01:17:55;;;;;;;35.53;15.13;;;10.00;99.90;;;;;;6147755;23;20417;-68
2022/10/23 01:20:29;;;;;;;33.65;14.52;;;10.10;99.90;;;;;;6120186;23;20539;-68
2022/10/23 01:22:58;;;;;;;30.17;13.68;;;10.10;99.90;;;;;;6119806;23;20025;-68
2022/10/23 01:25:41;;;;;;;25.90;14.02;;;10.00;99.90;;;;;;6146260;23;20053;-68
2022/10/23 01:28:09;;;;;;;;;;;10.00;99.90;;;;;;6147189;23;20034;-69
2022/10/23 01:30:39;;;;;;;30.73;14.52;;;9.90;99.90;;;;;;6145350;23;19920;-69
2022/10/23 01:33:13;;;;;;;31.55;14.52;;;10.00;99.90;;;;;;6146206;23;20458;-68
2022/10/23 01:35:51;;;;;;;40.15;16.25;;;10.00;99.90;;;;;;6120937;23;20014;-68
2022/10/23 01:38:29;;;;;;;25.33;13.80;;;10.00;99.90;;;;;;6146810;23;20014;-69
2022/10/23 01:41:01;;;;;;;34.75;17.38;;;9.90;99.90;;;;;;6120870;23;20021;-68
2022/10/23 01:43:36;;;;;;;32.33;16.02;;;9.90;99.90;;;;;;6145118;23;20131;-68
2022/10/23 01:46:05;;;;;;;31.92;15.90;;;9.90;99.90;;;;;;6145994;23;20032;-69
2022/10/23 01:48:34;;;;;;;32.08;14.75;;;10.00;99.90;;;;;;6146935;23;20013;-68
2022/10/23 01:51:04;;;;;;;31.20;16.45;;;10.00;99.90;;;;;;6146095;23;20025;-67
2022/10/23 01:53:35;;;;;;;27.27;14.90;;;9.90;99.90;;;;;;6146516;23;20021;-69
2022/10/23 01:56:03;;;;;;;35.38;16.52;;;9.90;99.90;;;;;;6146592;23;20240;-67
2022/10/23 01:58:31;;;;;;;31.52;14.60;;;9.90;99.90;;;;;;6146444;23;20013;-68
2022/10/23 02:01:01;;;;;;;27.85;15.43;;;9.90;99.90;;;;;;6146020;23;20045;-68
2022/10/23 02:03:30;;;;;;;41.08;17.88;;;9.90;99.90;;;;;;6147094;23;20415;-67
2022/10/23 02:05:56;;;;;;;39.38;18.85;;;9.80;99.90;;;;;;6120022;23;20061;-67
2022/10/23 02:08:22;;;;;;;35.97;18.13;;;9.90;99.90;;;;;;6119936;23;20386;-68
2022/10/23 02:10:50;;;;;;;39.90;18.42;;;9.80;99.90;;;;;;6145423;23;20485;-68
2022/10/23 02:13:27;;;;;;;39.78;17.55;;;9.90;99.90;;;;;;6145424;23;20104;-68
2022/10/23 02:16:04;;;;;;;36.10;16.02;;;9.90;99.90;;;;;;6146414;23;20084;-68
2022/10/23 02:18:44;;;;;;;30.60;15.68;;;9.90;99.90;;;;;;6146434;23;20026;-68
2022/10/23 02:21:17;;;;;;;33.15;15.88;;;9.80;99.90;;;;;;6147327;23;20032;-68
2022/10/23 02:23:48;;;;;;;;;;;9.80;99.90;;;;;;6147752;23;20043;-69
2022/10/23 02:26:25;;;;;;;39.50;18.15;;;9.80;99.90;;;;;;6144293;23;19944;-68
2022/10/23 02:28:56;;;;;;;24.73;15.10;;;9.80;99.90;;;;;;6119406;23;20134;-68
2022/10/23 02:31:22;;;;;;;30.20;16.60;;;9.80;99.90;;;;;;6118944;23;20041;-68
2022/10/23 02:33:48;;;;;;;34.75;16.75;;;9.80;99.90;;;;;;6145554;23;20061;-68
2022/10/23 02:36:17;;;;;;;33.17;16.58;;;9.80;99.90;;;;;;6120680;23;20355;-69
2022/10/23 02:38:43;;;;;;;33.17;17.25;;;9.80;99.90;;;;;;6146432;23;20025;-68
2022/10/23 02:41:35;;;;;;;35.40;17.70;;;9.80;99.90;;;;;;6143833;23;20021;-69
2022/10/23 02:44:15;;;;;;;35.80;16.92;;;9.80;99.90;;;;;;6145880;23;20029;-70
2022/10/23 02:46:49;;;;;;;39.53;18.08;;;9.90;99.90;;;;;;6145431;23;20021;-69
2022/10/23 02:49:34;;;;;;;35.55;16.23;;;9.80;99.90;;;;;;6119304;23;20072;-69
2022/10/23 02:52:25;;;;;;;44.58;16.83;;;9.80;99.90;;;;;;6148605;23;20053;-69
2022/10/23 02:54:53;;;;;;;83.25;19.90;;;9.90;99.90;;;;;;6146563;23;20528;-69
2022/10/23 02:57:39;;;;;;;54.60;18.55;;;9.80;99.90;;;;;;6147581;23;20409;-68
2022/10/23 03:00:10;;;;;;;62.30;19.35;;;9.80;99.90;;;;;;6147364;23;20043;-69
2022/10/23 03:02:38;;;;;;;46.85;17.92;;;9.70;99.90;;;;;;6120738;23;20536;-68
2022/10/23 03:05:07;;;;;;;43.03;18.45;;;9.80;99.90;;;;;;6121082;23;20025;-69
2022/10/23 03:07:33;;;;;;;46.78;20.05;;;9.80;99.90;;;;;;6149648;23;20474;-68
2022/10/23 03:09:59;;;;;;;36.95;17.67;;;9.80;99.90;;;;;;6146928;23;20048;-68
2022/10/23 03:12:25;;;;;;;55.47;21.25;;;9.90;99.90;;;;;;6121029;23;20072;-69
2022/10/23 03:14:50;;;;;;;54.70;22.13;;;9.90;99.90;;;;;;6146266;23;20402;-68
2022/10/23 03:17:16;;;;;;;36.60;18.75;;;9.90;99.90;;;;;;6121614;23;20021;-69
2022/10/23 03:19:42;;;;;;;36.05;19.60;;;9.90;99.90;;;;;;6149090;23;20466;-68
2022/10/23 03:22:07;;;;;;;34.75;19.08;;;9.90;99.90;;;;;;6120817;23;20029;-69
2022/10/23 03:24:33;;;;;;;40.35;19.73;;;9.90;99.90;;;;;;6121150;23;20033;-68
2022/10/23 03:26:58;;;;;;;40.72;19.85;;;9.90;99.90;;;;;;6147819;23;20021;-68
2022/10/23 03:29:24;;;;;;;36.42;19.75;;;9.90;99.90;;;;;;6145184;23;20068;-70
2022/10/23 03:31:50;;;;;;;38.20;20.10;;;9.90;99.90;;;;;;6121474;23;20580;-69
2022/10/23 03:34:15;;;;;;;37.33;20.80;;;10.00;99.90;;;;;;6146617;23;20112;-69
2022/10/23 03:36:41;;;;;;;45.80;22.23;;;10.00;99.90;;;;;;6146138;23;20097;-69
2022/10/23 03:39:07;;;;;;;39.35;20.33;;;10.00;99.90;;;;;;6146620;23;20777;-68
2022/10/23 03:41:32;;;;;;;36.78;22.23;;;10.00;99.90;;;;;;6122458;23;20013;-68
2022/10/23 03:43:58;;;;;;;51.33;21.77;;;10.00;99.90;;;;;;6147683;23;20053;-68
2022/10/23 03:46:23;;;;;;;41.03;20.80;;;10.10;99.90;;;;;;6148164;23;20033;-68
2022/10/23 03:48:49;;;;;;;37.72;19.92;;;10.10;99.90;;;;;;6148764;23;20024;-67
2022/10/23 03:51:15;;;;;;;34.05;19.83;;;10.10;99.90;;;;;;6146899;23;20032;-68
2022/10/23 03:53:40;;;;;;;38.88;19.58;;;10.10;99.90;;;;;;6147672;23;20028;-68
2022/10/23 03:56:06;;;;;;;43.22;21.20;;;10.10;99.90;;;;;;6147256;23;20044;-68
2022/10/23 03:58:32;;;;;;;41.20;19.65;;;10.10;99.90;;;;;;6120580;23;20213;-68
2022/10/23 04:00:57;;;;;;;32.97;19.65;;;10.10;99.90;;;;;;6147896;23;20088;-67
2022/10/23 04:03:23;;;;;;;42.53;20.83;;;10.20;99.90;;;;;;6146601;23;20104;-68
2022/10/23 04:05:49;;;;;;;44.45;20.85;;;10.20;99.90;;;;;;6119992;23;20331;-68
2022/10/23 04:08:14;;;;;;;41.38;20.23;;;10.20;99.90;;;;;;6147813;23;20080;-69
2022/10/23 04:10:40;;;;;;;37.00;19.55;;;10.20;99.90;;;;;;6121358;23;20025;-69
2022/10/23 04:13:06;;;;;;;33.00;19.17;;;10.20;99.90;;;;;;6147488;23;20045;-69
2022/10/23 04:15:31;;;;;;;32.85;20.70;;;10.30;99.90;;;;;;6147013;23;20017;-69
2022/10/23 04:17:57;;;;;;;37.65;19.92;;;10.30;99.90;;;;;;6147514;23;20033;-69
2022/10/23 04:20:23;;;;;;;38.00;20.20;;;10.40;99.90;;;;;;6121845;23;20021;-69
2022/10/23 04:22:48;;;;;;;39.85;19.75;;;10.30;99.90;;;;;;6148476;23;20454;-68
2022/10/23 04:25:15;;;;;;;41.42;20.73;;;10.30;99.90;;;;;;6144925;23;20037;-69
2022/10/23 04:27:41;;;;;;;40.53;20.88;;;10.30;99.90;;;;;;6148095;23;20032;-68
2022/10/23 04:30:07;;;;;;;33.25;19.48;;;10.30;99.90;;;;;;6120339;23;20025;-69
2022/10/23 04:32:33;;;;;;;37.65;20.10;;;10.30;99.90;;;;;;6120273;23;20025;-68
2022/10/23 04:34:59;;;;;;;34.63;19.13;;;10.30;99.90;;;;;;6147681;23;20022;-68
2022/10/23 04:37:25;;;;;;;33.90;18.83;;;10.30;99.90;;;;;;6147996;23;20094;-68
2022/10/23 04:39:51;;;;;;;35.97;18.70;;;10.30;99.90;;;;;;6144994;23;20021;-68
2022/10/23 04:42:16;;;;;;;33.90;19.40;;;10.30;99.90;;;;;;6147361;23;20481;-68
2022/10/23 04:44:42;;;;;;;36.90;18.42;;;10.30;99.90;;;;;;6121841;23;20014;-69
2022/10/23 04:47:07;;;;;;;36.65;18.77;;;10.30;99.90;;;;;;6137113;23;20053;-82
2022/10/23 04:49:33;;;;;;;38.50;19.67;;;10.30;99.90;;;;;;6202808;23;20017;-82
2022/10/23 04:51:59;;;;;;;32.28;17.92;;;10.20;99.90;;;;;;6178256;23;20021;-83
2022/10/23 04:54:24;;;;;;;25.88;17.02;;;10.20;99.90;;;;;;6202169;23;20036;-85
2022/10/23 04:56:50;;;;;;;35.65;18.02;;;10.20;99.90;;;;;;6210056;23;20028;-83
2022/10/23 04:59:16;;;;;;;30.88;17.08;;;10.20;99.90;;;;;;6207682;23;20074;-82
2022/10/23 05:01:41;;;;;;;30.95;17.65;;;10.20;99.90;;;;;;6181056;23;20017;-82
2022/10/23 05:04:07;;;;;;;35.35;19.33;;;10.10;99.90;;;;;;6208988;23;20091;-83
2022/10/23 05:06:33;;;;;;;36.63;19.50;;;10.10;99.90;;;;;;6179231;23;20035;-83
2022/10/23 05:08:59;;;;;;;35.33;19.70;;;10.20;99.90;;;;;;6209476;23;20546;-82
2022/10/23 05:11:24;;;;;;;31.27;18.83;;;10.20;99.90;;;;;;6209424;23;20027;-83
2022/10/23 05:13:50;;;;;;;41.30;20.52;;;10.30;99.90;;;;;;6209304;23;20684;-83
2022/10/23 05:16:40;;;;;;;34.88;19.23;;;10.30;99.90;;;;;;6209077;23;20343;-83
2022/10/23 05:19:09;;;;;;;35.70;20.08;;;10.20;99.90;;;;;;6177793;23;20099;-82
2022/10/23 05:21:39;;;;;;;36.40;20.20;;;10.30;99.90;;;;;;6206222;23;20260;-82
2022/10/23 05:24:04;;;;;;;38.55;19.70;;;10.30;99.90;;;;;;6176865;23;20031;-82
2022/10/23 05:26:31;;;;;;;36.85;20.77;;;10.20;99.90;;;;;;6204546;23;20044;-83
2022/10/23 05:28:57;;;;;;;35.63;20.15;;;10.20;99.90;;;;;;6208616;23;20380;-83
2022/10/23 05:31:24;;;;;;;33.85;20.08;;;10.20;99.90;;;;;;6177708;23;20013;-83
2022/10/23 05:33:52;;;;;;;45.17;23.83;;;10.20;99.90;;;;;;6181607;23;20028;-83
2022/10/23 05:36:17;;;;;;;35.53;21.85;;;10.10;99.90;;;;;;6176981;23;20017;-82
2022/10/23 05:38:44;;;;;;;40.60;21.88;;;10.20;99.90;;;;;;6208017;23;20035;-82
2022/10/23 05:41:10;;;;;;;38.95;22.02;;;10.20;99.90;;;;;;6212905;23;20504;-82
2022/10/23 05:43:36;;;;;;;43.33;23.77;;;10.20;99.90;;;;;;6183313;23;20013;-82
2022/10/23 05:46:05;;;;;;;47.13;25.13;;;10.20;99.90;;;;;;6182379;23;20040;-81
2022/10/23 05:48:34;;;;;;;46.88;23.95;;;10.20;99.90;;;;;;6200879;23;20051;-82
2022/10/23 05:51:10;;;;;;;41.67;23.15;;;10.10;99.90;;;;;;6177820;23;20013;-82
2022/10/23 05:53:39;;;;;;;39.88;23.02;;;10.20;99.90;;;;;;6180648;23;20027;-82
2022/10/23 05:56:09;;;;;;;44.00;24.10;;;10.20;99.90;;;;;;6181896;23;20460;-81
2022/10/23 05:58:35;;;;;;;40.80;24.08;;;10.20;99.90;;;;;;6176174;23;20077;-81
2022/10/23 06:01:08;;;;;;;46.08;25.30;;;10.10;99.90;;;;;;6177252;23;20029;-76
2022/10/23 06:03:35;;;;;;;41.65;23.38;;;10.20;99.90;;;;;;6173494;23;20334;-82
2022/10/23 06:06:00;;;;;;;47.70;26.77;;;10.20;99.90;;;;;;6166148;23;20105;-81
2022/10/23 06:08:26;;;;;;;41.13;22.75;;;10.20;99.90;;;;;;6176551;23;20048;-82
2022/10/23 06:10:52;;;;;;;46.80;24.38;;;10.20;99.90;;;;;;6175729;23;20018;-82
2022/10/23 06:13:17;;;;;;;41.85;24.73;;;10.20;99.90;;;;;;6177800;23;20053;-81
2022/10/23 06:15:43;;;;;;;47.38;25.20;;;10.20;99.90;;;;;;6184547;23;20021;-81
2022/10/23 06:18:09;;;;;;;45.47;24.85;;;10.20;99.90;;;;;;6181924;23;20025;-81
2022/10/23 06:20:36;;;;;;;44.63;25.33;;;10.20;99.90;;;;;;6180472;23;20072;-83
2022/10/23 06:23:05;;;;;;;48.35;25.92;;;10.20;99.90;;;;;;6176552;23;20461;-81
2022/10/23 06:25:31;;;;;;;45.72;25.95;;;10.20;99.90;;;;;;6177258;23;20091;-83
2022/10/23 06:27:57;;;;;;;43.78;24.60;;;10.20;99.90;;;;;;6184610;23;20498;-83
2022/10/23 06:30:23;;;;;;;51.05;26.75;;;10.20;99.90;;;;;;6179616;23;20024;-83
2022/10/23 06:32:49;;;;;;;47.63;26.40;;;10.30;99.90;;;;;;6178448;23;20029;-83
2022/10/23 06:35:16;;;;;;;49.70;25.88;;;10.30;99.90;;;;;;6176787;23;20107;-83
2022/10/23 06:37:41;;;;;;;43.55;26.05;;;10.30;99.90;;;;;;6178289;23;20013;-83
2022/10/23 06:40:07;;;;;;;48.05;25.52;;;10.30;99.90;;;;;;6176776;23;20027;-83
2022/10/23 06:42:34;;;;;;;51.33;25.92;;;10.40;99.90;;;;;;6177796;23;20017;-84
2022/10/23 06:44:59;;;;;;;46.70;26.25;;;10.40;99.90;;;;;;6176937;23;20025;-82
2022/10/23 06:47:25;;;;;;;49.65;26.10;;;10.30;99.90;;;;;;6186232;23;20083;-81
2022/10/23 06:49:51;;;;;;;42.97;24.77;;;10.40;99.90;;;;;;6208979;23;20093;-81
2022/10/23 06:52:16;;;;;;;54.17;27.10;;;10.40;99.90;;;;;;6209889;23;20024;-82
2022/10/23 06:54:42;;;;;;;46.85;26.33;;;10.50;99.90;;;;;;6210312;23;20635;-82
2022/10/23 06:57:08;;;;;;;50.28;26.67;;;10.50;99.90;;;;;;6214563;23;20047;-82
2022/10/23 06:59:33;;;;;;;41.95;24.65;;;10.50;99.90;;;;;;6210880;23;20347;-82
2022/10/23 07:01:59;;;;;;;46.78;24.77;;;10.50;99.90;;;;;;6177488;23;20460;-82
2022/10/23 07:04:25;;;;;;;45.45;25.23;;;10.60;99.90;;;;;;6201748;23;20016;-81
2022/10/23 07:06:53;;;;;;;49.00;27.00;;;10.60;99.90;;;;;;6208208;23;20103;-81
2022/10/23 07:09:19;;;;;;;47.67;27.13;;;10.60;99.90;;;;;;6206826;23;20021;-82
2022/10/23 07:11:44;;;;;;;49.88;25.38;;;10.60;99.90;;;;;;6207568;23;20020;-82
2022/10/23 07:14:10;;;;;;;49.42;25.75;;;10.70;99.90;;;;;;6207033;23;20253;-77
2022/10/23 07:16:35;;;;;;;43.47;25.80;;;10.70;99.90;;;;;;6189031;23;20009;-78
2022/10/23 07:19:01;;;;;;;46.60;25.50;;;10.70;99.90;;;;;;6191407;23;20013;-77
2022/10/23 07:21:30;;;;;;;51.05;25.60;;;10.80;99.90;;;;;;6192312;23;20072;-79
2022/10/23 07:23:56;;;;;;;52.50;26.33;;;10.80;99.90;;;;;;6177393;23;20017;-80
2022/10/23 07:26:22;;;;;;;45.40;24.88;;;10.80;99.90;;;;;;6202367;23;20020;-80
2022/10/23 07:28:53;;;;;;;43.60;24.33;;;10.90;99.90;;;;;;6178469;23;20095;-78
2022/10/23 07:31:20;;;;;;;51.50;28.20;;;10.90;99.90;;;;;;6209316;23;20024;-75
2022/10/23 07:33:46;;;;;;;42.60;26.17;;;10.90;99.90;;;;;;6181467;23;20013;-76
2022/10/23 07:36:12;;;;;;;46.40;24.83;;;10.90;99.90;;;;;;6178053;23;20017;-76
2022/10/23 07:38:37;;;;;;;42.13;24.45;;;11.00;99.90;;;;;;6176826;23;20017;-78
2022/10/23 07:41:05;;;;;;;43.22;24.20;;;11.00;99.90;;;;;;6206696;23;20016;-77
2022/10/23 07:43:30;;;;;;;48.47;24.95;;;11.10;99.90;;;;;;6207383;23;20047;-78
2022/10/23 07:45:56;;;;;;;40.97;24.35;;;11.10;99.90;;;;;;6209363;23;20063;-76
2022/10/23 07:48:22;;;;;;;42.72;23.58;;;11.20;99.90;;;;;;6207665;23;20099;-77
2022/10/23 07:50:49;;;;;;;46.42;25.23;;;11.30;99.90;;;;;;6209367;23;20017;-78
2022/10/23 07:53:22;;;;;;;44.00;24.17;;;11.30;99.90;;;;;;6205518;23;20017;-77
2022/10/23 07:55:55;;;;;;;;;;;11.30;99.90;;;;;;6209052;23;20025;-76
2022/10/23 07:58:21;;;;;;;50.90;24.65;;;11.30;99.90;;;;;;6175658;23;19912;-77
2022/10/23 08:00:57;;;;;;;44.03;23.67;;;11.40;99.90;;;;;;6206543;23;20027;-77
2022/10/23 08:03:23;;;;;;;42.45;24.33;;;11.40;99.90;;;;;;6205523;23;20040;-77
2022/10/23 08:05:50;;;;;;;42.05;24.17;;;11.50;99.90;;;;;;6208125;23;20024;-77
2022/10/23 08:08:16;;;;;;;39.65;23.80;;;11.50;99.90;;;;;;6207136;23;20700;-78
2022/10/23 08:10:42;;;;;;;48.75;24.10;;;11.60;99.90;;;;;;6207176;23;20027;-79
2022/10/23 08:13:11;;;;;;;40.60;23.52;;;11.60;99.90;;;;;;6176062;23;20075;-74
2022/10/23 08:15:37;;;;;;;43.35;22.17;;;11.70;99.90;;;;;;6202923;23;20027;-75
2022/10/23 08:18:03;;;;;;;37.88;23.05;;;11.70;99.90;;;;;;6175649;23;20067;-75
2022/10/23 08:20:29;;;;;;;43.30;24.40;;;11.80;99.90;;;;;;6176483;23;20017;-76
2022/10/23 08:22:55;;;;;;;42.33;23.67;;;11.80;99.90;;;;;;6208787;23;20016;-76
2022/10/23 08:25:21;;;;;;;36.22;21.98;;;11.80;99.90;;;;;;6173037;23;20016;-77
2022/10/23 08:27:47;;;;;;;42.00;22.15;;;11.80;99.90;;;;;;6179634;23;20032;-75
2022/10/23 08:30:14;;;;;;;49.13;27.48;;;11.90;99.90;;;;;;6209246;23;20133;-77
2022/10/23 08:32:42;;;;;;;42.15;24.60;;;11.90;99.90;;;;;;6173252;23;20428;-76
2022/10/23 08:35:09;;;;;;;33.15;23.15;;;12.00;99.90;;;;;;6202103;23;20016;-76
2022/10/23 08:37:34;;;;;;;39.83;21.92;;;12.10;99.90;;;;;;6206669;23;20030;-76
2022/10/23 08:40:00;;;;;;;35.95;20.25;;;12.10;99.90;;;;;;6204748;23;20016;-77
2022/10/23 08:42:26;;;;;;;32.25;21.33;;;12.10;99.90;;;;;;6205735;23;20102;-77
2022/10/23 08:45:04;;;;;;;35.90;20.70;;;12.20;99.90;;;;;;6206762;23;20043;-77
2022/10/23 08:47:42;;;;;;;40.78;23.45;;;12.20;99.90;;;;;;6187416;23;20027;-78
2022/10/23 08:50:33;;;;;;;30.85;20.90;;;12.30;99.90;;;;;;6206239;23;20009;-77
2022/10/23 08:53:17;;;;;;;41.47;20.52;;;12.40;99.90;;;;;;6219193;23;20052;-77
2022/10/23 08:55:48;;;;;;;34.60;19.83;;;12.40;99.90;;;;;;6208150;23;20016;-77
2022/10/23 08:58:30;;;;;;;29.35;19.70;;;12.50;99.90;;;;;;6207563;23;20017;-79
2022/10/23 09:00:56;;;;;;;29.53;18.47;;;12.50;99.90;;;;;;6203009;23;20036;-77
2022/10/23 09:03:22;;;;;;;34.65;19.65;;;12.60;99.90;;;;;;6205127;23;20114;-78
2022/10/23 09:06:23;;;;;;;31.33;17.67;;;12.60;99.90;;;;;;6206803;23;20437;-77
2022/10/23 09:09:04;;;;;;;28.80;16.35;;;12.60;99.90;;;;;;6177695;23;20017;-76
2022/10/23 09:12:05;;;;;;;29.25;17.70;;;12.70;99.90;;;;;;6173543;23;20108;-77
2022/10/23 09:15:05;;;;;;;25.90;16.73;;;12.80;99.90;;;;;;6206632;23;20020;-77
2022/10/23 09:17:33;;;;;;;25.55;16.58;;;12.80;99.90;;;;;;6176222;23;20036;-77
2022/10/23 09:20:05;;;;;;;24.30;16.27;;;12.90;99.90;;;;;;6207880;23;20021;-77
2022/10/23 09:22:34;;;;;;;27.70;20.05;;;12.90;99.90;;;;;;6179769;23;20024;-77
2022/10/23 09:25:19;;;;;;;29.23;19.02;;;13.00;99.90;;;;;;6220293;23;20035;-77
2022/10/23 09:27:55;;;;;;;26.42;17.85;;;13.00;99.90;;;;;;6204010;23;20127;-76
2022/10/23 09:30:37;;;;;;;26.55;15.93;;;13.10;99.90;;;;;;6205459;23;20061;-74
2022/10/23 09:33:24;;;;;;;27.52;18.55;;;13.10;99.90;;;;;;6204756;23;20842;-76
2022/10/23 09:36:20;;;;;;;29.13;15.77;;;13.20;99.90;;;;;;6205083;23;20020;-76
2022/10/23 09:38:45;;;;;;;26.75;16.45;;;13.20;99.90;;;;;;6180526;23;20400;-77
2022/10/23 09:41:19;;;;;;;23.17;15.65;;;13.30;99.90;;;;;;6202933;23;20036;-76
2022/10/23 09:43:45;;;;;;;26.70;14.93;;;13.40;99.90;;;;;;6177699;23;20404;-77
2022/10/23 09:46:11;;;;;;;24.92;15.23;;;13.40;99.90;;;;;;6206784;23;20464;-76
2022/10/23 09:48:41;;;;;;;22.00;14.65;;;13.40;99.90;;;;;;6204826;23;20024;-77
2022/10/23 09:51:19;;;;;;;23.25;14.88;;;13.40;99.90;;;;;;6172199;23;20025;-76
2022/10/23 09:53:52;;;;;;;25.95;14.98;;;13.50;99.90;;;;;;6176889;23;20033;-72
2022/10/23 09:56:30;;;;;;;22.20;14.00;;;13.50;99.90;;;;;;6207191;23;20027;-80
2022/10/23 09:58:59;;;;;;;23.50;14.13;;;13.50;99.90;;;;;;6177477;23;20565;-77
2022/10/23 10:01:28;;;;;;;21.42;14.07;;;13.50;99.90;;;;;;6177976;23;20472;-84
2022/10/23 10:03:54;;;;;;;26.02;15.27;;;13.60;99.90;;;;;;6205778;23;20033;-83
2022/10/23 10:06:28;;;;;;;28.77;15.27;;;13.60;99.90;;;;;;6176324;23;20147;-85
2022/10/23 10:09:00;;;;;;;17.83;13.65;;;13.60;99.90;;;;;;6208313;23;20032;-86
2022/10/23 10:11:35;;;;;;;22.25;13.25;;;13.70;99.90;;;;;;6174577;23;20013;-84
2022/10/23 10:14:01;;;;;;;23.20;13.98;;;13.70;99.90;;;;;;6173844;23;20493;-75
2022/10/23 10:16:48;;;;;;;21.33;12.48;;;13.80;99.90;;;;;;6176423;23;20100;-78
2022/10/23 10:19:19;;;;;;;20.13;12.45;;;13.80;99.90;;;;;;6217103;23;20013;-81
2022/10/23 10:22:09;;;;;;;17.75;12.13;;;13.90;99.90;;;;;;6218514;23;20128;-82
2022/10/23 10:25:01;;;;;;;19.95;12.38;;;14.00;99.90;;;;;;6233110;23;20025;-83
2022/10/23 10:27:42;;;;;;;18.80;11.93;;;14.00;99.90;;;;;;6199640;23;20032;-81
2022/10/23 10:30:44;;;;;;;17.15;11.73;;;14.10;99.90;;;;;;6208269;23;20052;-82
2022/10/23 10:33:38;;;;;;;17.08;11.50;;;14.20;99.90;;;;;;6174131;23;20100;-81
2022/10/23 10:36:15;;;;;;;17.58;11.30;;;14.30;99.90;;;;;;6196644;23;20092;-81
2022/10/23 10:38:50;;;;;;;12.40;9.57;;;14.40;99.90;;;;;;6177607;23;20013;-79
2022/10/23 10:41:43;;;;;;;17.15;9.93;;;14.50;99.90;;;;;;6174469;23;20024;-81
2022/10/23 10:44:18;;;;;;;14.00;9.63;;;14.50;99.90;;;;;;6175931;23;20028;-82
2022/10/23 10:47:18;;;;;;;17.73;9.73;;;14.60;99.90;;;;;;6178481;23;20048;-76
2022/10/23 10:50:18;;;;;;;18.80;9.65;;;14.60;99.90;;;;;;6173523;23;20021;-80
2022/10/23 10:53:17;;;;;;;22.20;10.43;;;14.70;99.90;;;;;;6172494;23;20017;-81
2022/10/23 10:55:45;;;;;;;22.40;9.15;;;14.80;99.90;;;;;;6198971;23;20016;-80
2022/10/23 10:58:32;;;;;;;33.25;12.13;;;14.80;99.90;;;;;;6207840;23;20054;-78
2022/10/23 11:01:04;;;;;;;17.52;9.45;;;14.80;99.90;;;;;;6177597;23;20129;-78
2022/10/23 11:03:51;;;;;;;12.95;7.97;;;14.90;99.90;;;;;;6201874;23;20017;-75
2022/10/23 11:06:21;;;;;;;12.90;7.57;;;15.00;99.90;;;;;;6193536;23;20017;-76
2022/10/23 11:08:48;;;;;;;11.60;7.25;;;14.90;99.90;;;;;;6206547;23;20087;-76
2022/10/23 11:11:35;;;;;;;11.35;7.20;;;15.00;99.90;;;;;;6206392;23;20438;-78
2022/10/23 11:14:01;;;;;;;15.13;7.45;;;15.10;99.90;;;;;;6214455;23;20027;-77
2022/10/23 11:16:35;;;;;;;11.82;6.90;;;15.10;99.90;;;;;;6214715;23;20456;-79
2022/10/23 11:19:23;;;;;;;14.95;6.75;;;15.10;99.90;;;;;;6211463;23;20028;-78
2022/10/23 11:22:02;;;;;;;16.73;6.78;;;15.20;99.90;;;;;;6206468;23;20115;-78
2022/10/23 11:24:43;;;;;;;15.07;7.00;;;15.10;99.90;;;;;;6176469;23;20017;-78
2022/10/23 11:27:14;;;;;;;11.52;6.15;;;15.20;99.90;;;;;;6190838;23;20103;-80
2022/10/23 11:30:11;;;;;;;15.98;7.00;;;15.20;99.90;;;;;;6186172;23;20020;-82
2022/10/23 11:32:53;;;;;;;10.38;6.25;;;15.30;99.90;;;;;;6177734;23;20017;-83
2022/10/23 11:35:29;;;;;;;12.52;6.10;;;15.40;99.90;;;;;;6176401;23;20036;-81
2022/10/23 11:38:23;;;;;;;13.30;6.30;;;15.40;99.90;;;;;;6206185;23;20032;-80
2022/10/23 11:40:52;;;;;;;12.32;6.25;;;15.40;99.90;;;;;;6168162;23;20028;-83
2022/10/23 11:43:47;;;;;;;9.98;5.50;;;15.40;99.90;;;;;;6207271;23;20021;-80
2022/10/23 11:46:22;;;;;;;13.73;6.65;;;15.40;99.90;;;;;;6206750;23;20197;-79
2022/10/23 11:48:49;;;;;;;11.48;5.65;;;15.50;99.90;;;;;;6183683;23;20021;-79
2022/10/23 11:51:35;;;;;;;14.75;5.68;;;15.40;99.90;;;;;;6195132;23;20348;-80
2022/10/23 11:54:25;;;;;;;15.10;5.63;;;15.40;99.90;;;;;;6208221;23;20024;-77
2022/10/23 11:57:14;;;;;;;10.88;5.30;;;15.50;99.90;;;;;;6213645;23;20028;-81
2022/10/23 11:59:40;;;;;;;9.82;5.78;;;15.40;99.90;;;;;;6209730;23;20012;-78
2022/10/23 12:02:27;;;;;;;10.82;5.75;;;15.50;99.90;;;;;;6207673;23;20538;-76
2022/10/23 12:04:54;;;;;;;10.43;4.93;;;15.40;99.90;;;;;;6210536;23;20104;-85
2022/10/23 12:07:27;;;;;;;11.73;4.65;;;15.50;99.90;;;;;;6178218;23;20024;-75
2022/10/23 12:09:56;;;;;;;9.68;5.60;;;15.50;99.90;;;;;;6181894;23;20540;-75
2022/10/23 12:12:33;;;;;;;9.73;5.05;;;15.50;99.90;;;;;;6175458;23;20051;-77
2022/10/23 12:15:14;;;;;;;9.07;4.95;;;15.50;99.90;;;;;;6208837;23;20375;-80
2022/10/23 12:17:41;;;;;;;17.08;6.90;;;15.60;99.90;;;;;;6180160;23;20021;-76
2022/10/23 12:20:07;;;;;;;113.65;28.02;;;15.60;99.90;;;;;;6177525;23;20434;-70
2022/10/23 12:23:01;;;;;;;12.93;5.07;;;15.60;99.90;;;;;;6180490;23;20028;-79
2022/10/23 12:25:45;;;;;;;15.13;5.32;;;15.50;99.90;;;;;;6119186;23;20515;-76
2022/10/23 12:28:34;;;;;;;19.92;6.90;;;15.40;99.90;;;;;;6180864;23;20367;-77
2022/10/23 12:31:21;;;;;;;12.50;5.75;;;15.40;99.90;;;;;;6155509;23;20025;-77
2022/10/23 12:34:00;;;;;;;8.95;5.40;;;15.40;99.90;;;;;;6182995;23;20024;-76
2022/10/23 12:36:50;;;;;;;10.65;5.32;;;15.30;99.90;;;;;;6208956;23;20020;-73
2022/10/23 12:39:29;;;;;;;10.90;5.15;;;15.40;99.90;;;;;;6207108;23;20036;-71
2022/10/23 12:41:56;;;;;;;8.45;4.40;;;15.40;99.90;;;;;;6174175;23;20028;-71
2022/10/23 12:44:24;;;;;;;9.07;4.53;;;15.50;99.90;;;;;;6200343;23;20020;-71
2022/10/23 12:46:55;;;;;;;10.45;5.10;;;15.40;99.90;;;;;;6180950;23;20013;-71
2022/10/23 12:49:25;;;;;;;11.10;4.68;;;15.40;99.90;;;;;;6208243;23;20025;-71
2022/10/23 12:51:59;;;;;;;10.90;4.80;;;15.40;99.90;;;;;;6181055;23;20551;-71